sensor_id;sensor_type;location;lat;lon;timestamp;P1;durP1;ratioP1;P2;durP2;ratioP2
11531;SDS011;5822;51.000;5.874;2022-12-10T00:00:35;34.15;;;31.45;;
11531;SDS011;5822;51.000;5.874;2022-12-10T00:03:01;32.97;;;30.37;;
11531;SDS011;5822;51.000;5.874;2022-12-10T00:05:27;32.92;;;30.35;;
11531;SDS011;5822;51.000;5.874;2022-12-10T00:07:52;35.10;;;32.30;;
11531;SDS011;5822;51.000;5.874;2022-12-10T00:10:18;32.33;;;29.83;;
11531;SDS011;5822;51.000;5.874;2022-12-10T00:12:44;33.10;;;30.50;;
11531;SDS011;5822;51.000;5.874;2022-12-10T00:15:09;32.67;;;30.17;;
11531;SDS011;5822;51.000;5.874;2022-12-10T00:17:35;31.85;;;29.35;;
11531;SDS011;5822;51.000;5.874;2022-12-10T00:20:01;32.55;;;30.05;;
11531;SDS011;5822;51.000;5.874;2022-12-10T00:22:26;33.13;;;30.53;;
11531;SDS011;5822;51.000;5.874;2022-12-10T00:24:52;32.03;;;29.63;;
11531;SDS011;5822;51.000;5.874;2022-12-10T00:27:18;33.15;;;30.52;;
11531;SDS011;5822;51.000;5.874;2022-12-10T00:29:43;32.60;;;30.00;;
11531;SDS011;5822;51.000;5.874;2022-12-10T00:32:09;34.53;;;31.73;;
11531;SDS011;5822;51.000;5.874;2022-12-10T00:34:34;35.80;;;32.90;;
11531;SDS011;5822;51.000;5.874;2022-12-10T00:37:00;35.80;;;32.90;;
11531;SDS011;5822;51.000;5.874;2022-12-10T00:39:26;34.67;;;31.97;;
11531;SDS011;5822;51.000;5.874;2022-12-10T00:41:52;33.38;;;30.77;;
11531;SDS011;5822;51.000;5.874;2022-12-10T00:44:17;34.85;;;32.10;;
11531;SDS011;5822;51.000;5.874;2022-12-10T00:46:43;35.33;;;32.43;;
11531;SDS011;5822;51.000;5.874;2022-12-10T00:49:09;35.67;;;32.87;;
11531;SDS011;5822;51.000;5.874;2022-12-10T00:51:35;34.47;;;31.67;;
11531;SDS011;5822;51.000;5.874;2022-12-10T00:54:01;34.78;;;31.98;;
11531;SDS011;5822;51.000;5.874;2022-12-10T00:56:28;35.70;;;32.80;;
11531;SDS011;5822;51.000;5.874;2022-12-10T00:58:55;36.42;;;33.53;;
11531;SDS011;5822;51.000;5.874;2022-12-10T01:01:32;36.97;;;34.07;;
11531;SDS011;5822;51.000;5.874;2022-12-10T01:04:05;35.43;;;32.63;;
11531;SDS011;5822;51.000;5.874;2022-12-10T01:06:34;36.30;;;33.38;;
11531;SDS011;5822;51.000;5.874;2022-12-10T01:09:04;35.00;;;32.27;;
11531;SDS011;5822;51.000;5.874;2022-12-10T01:11:33;33.33;;;30.73;;
11531;SDS011;5822;51.000;5.874;2022-12-10T01:14:02;35.40;;;32.58;;
11531;SDS011;5822;51.000;5.874;2022-12-10T01:16:28;39.50;;;36.20;;
11531;SDS011;5822;51.000;5.874;2022-12-10T01:18:55;38.88;;;35.67;;
11531;SDS011;5822;51.000;5.874;2022-12-10T01:21:22;37.40;;;34.40;;
11531;SDS011;5822;51.000;5.874;2022-12-10T01:23:50;37.08;;;34.05;;
11531;SDS011;5822;51.000;5.874;2022-12-10T01:26:17;36.17;;;33.28;;
11531;SDS011;5822;51.000;5.874;2022-12-10T01:28:45;34.30;;;31.52;;
11531;SDS011;5822;51.000;5.874;2022-12-10T01:31:13;33.60;;;31.00;;
11531;SDS011;5822;51.000;5.874;2022-12-10T01:33:40;33.63;;;31.03;;
11531;SDS011;5822;51.000;5.874;2022-12-10T01:36:07;33.05;;;30.55;;
11531;SDS011;5822;51.000;5.874;2022-12-10T01:38:37;33.25;;;30.65;;
11531;SDS011;5822;51.000;5.874;2022-12-10T01:41:04;33.58;;;30.98;;
11531;SDS011;5822;51.000;5.874;2022-12-10T01:43:47;34.30;;;31.60;;
11531;SDS011;5822;51.000;5.874;2022-12-10T01:46:13;34.63;;;31.92;;
11531;SDS011;5822;51.000;5.874;2022-12-10T01:48:39;34.47;;;31.77;;
11531;SDS011;5822;51.000;5.874;2022-12-10T01:51:04;35.20;;;32.40;;
11531;SDS011;5822;51.000;5.874;2022-12-10T01:53:31;34.20;;;31.47;;
11531;SDS011;5822;51.000;5.874;2022-12-10T01:55:56;33.67;;;31.08;;
11531;SDS011;5822;51.000;5.874;2022-12-10T01:58:22;33.08;;;30.50;;
11531;SDS011;5822;51.000;5.874;2022-12-10T02:00:56;33.45;;;30.85;;
11531;SDS011;5822;51.000;5.874;2022-12-10T02:03:41;35.78;;;32.88;;
11531;SDS011;5822;51.000;5.874;2022-12-10T02:08:55;34.13;;;31.52;;
11531;SDS011;5822;51.000;5.874;2022-12-10T02:11:29;34.33;;;31.63;;
11531;SDS011;5822;51.000;5.874;2022-12-10T02:14:03;36.95;;;33.92;;
11531;SDS011;5822;51.000;5.874;2022-12-10T02:16:53;37.35;;;34.25;;
11531;SDS011;5822;51.000;5.874;2022-12-10T02:19:39;38.85;;;35.55;;
11531;SDS011;5822;51.000;5.874;2022-12-10T02:22:21;41.08;;;37.65;;
11531;SDS011;5822;51.000;5.874;2022-12-10T02:24:50;38.75;;;35.55;;
11531;SDS011;5822;51.000;5.874;2022-12-10T02:30:05;38.35;;;35.10;;
11531;SDS011;5822;51.000;5.874;2022-12-10T02:32:33;39.50;;;36.20;;
11531;SDS011;5822;51.000;5.874;2022-12-10T02:35:04;38.45;;;35.22;;
11531;SDS011;5822;51.000;5.874;2022-12-10T02:37:39;37.10;;;34.10;;
11531;SDS011;5822;51.000;5.874;2022-12-10T02:40:17;35.00;;;32.20;;
11531;SDS011;5822;51.000;5.874;2022-12-10T02:42:48;41.50;;;38.10;;
11531;SDS011;5822;51.000;5.874;2022-12-10T02:45:15;36.70;;;33.73;;
11531;SDS011;5822;51.000;5.874;2022-12-10T02:47:42;35.50;;;32.60;;
11531;SDS011;5822;51.000;5.874;2022-12-10T02:50:08;35.67;;;32.87;;
11531;SDS011;5822;51.000;5.874;2022-12-10T02:52:36;36.35;;;33.42;;
11531;SDS011;5822;51.000;5.874;2022-12-10T02:55:02;35.25;;;32.45;;
11531;SDS011;5822;51.000;5.874;2022-12-10T02:57:35;36.07;;;33.13;;
11531;SDS011;5822;51.000;5.874;2022-12-10T03:00:17;37.70;;;34.65;;
11531;SDS011;5822;51.000;5.874;2022-12-10T03:08:21;41.38;;;37.97;;
11531;SDS011;5822;51.000;5.874;2022-12-10T03:13:36;38.60;;;35.40;;
11531;SDS011;5822;51.000;5.874;2022-12-10T03:16:13;45.53;;;41.83;;
11531;SDS011;5822;51.000;5.874;2022-12-10T03:18:40;40.42;;;37.03;;
11531;SDS011;5822;51.000;5.874;2022-12-10T03:21:06;40.03;;;36.63;;
11531;SDS011;5822;51.000;5.874;2022-12-10T03:23:36;39.80;;;36.40;;
11531;SDS011;5822;51.000;5.874;2022-12-10T03:26:04;38.97;;;35.78;;
11531;SDS011;5822;51.000;5.874;2022-12-10T03:28:35;38.30;;;35.10;;
11531;SDS011;5822;51.000;5.874;2022-12-10T03:31:05;35.88;;;32.97;;
11531;SDS011;5822;51.000;5.874;2022-12-10T03:33:35;41.10;;;37.58;;
11531;SDS011;5822;51.000;5.874;2022-12-10T03:36:01;39.90;;;36.60;;
11531;SDS011;5822;51.000;5.874;2022-12-10T03:38:28;40.03;;;36.75;;
11531;SDS011;5822;51.000;5.874;2022-12-10T03:40:54;38.15;;;35.05;;
11531;SDS011;5822;51.000;5.874;2022-12-10T03:43:20;39.57;;;36.27;;
11531;SDS011;5822;51.000;5.874;2022-12-10T03:45:46;37.07;;;34.07;;
11531;SDS011;5822;51.000;5.874;2022-12-10T03:48:12;37.53;;;34.53;;
11531;SDS011;5822;51.000;5.874;2022-12-10T03:50:37;39.90;;;36.60;;
11531;SDS011;5822;51.000;5.874;2022-12-10T03:53:03;40.08;;;36.70;;
11531;SDS011;5822;51.000;5.874;2022-12-10T03:55:29;39.25;;;36.10;;
11531;SDS011;5822;51.000;5.874;2022-12-10T03:57:54;37.27;;;34.27;;
11531;SDS011;5822;51.000;5.874;2022-12-10T04:00:20;35.20;;;32.40;;
11531;SDS011;5822;51.000;5.874;2022-12-10T04:02:45;37.27;;;34.27;;
11531;SDS011;5822;51.000;5.874;2022-12-10T04:05:11;38.87;;;35.67;;
11531;SDS011;5822;51.000;5.874;2022-12-10T04:07:37;37.65;;;34.55;;
11531;SDS011;5822;51.000;5.874;2022-12-10T04:10:02;37.33;;;34.33;;
11531;SDS011;5822;51.000;5.874;2022-12-10T04:12:28;39.60;;;36.40;;
11531;SDS011;5822;51.000;5.874;2022-12-10T04:14:54;37.45;;;34.33;;
11531;SDS011;5822;51.000;5.874;2022-12-10T04:17:38;41.50;;;37.95;;
11531;SDS011;5822;51.000;5.874;2022-12-10T04:20:04;38.30;;;35.10;;
11531;SDS011;5822;51.000;5.874;2022-12-10T04:22:30;39.40;;;36.15;;
11531;SDS011;5822;51.000;5.874;2022-12-10T04:25:14;41.85;;;38.35;;
11531;SDS011;5822;51.000;5.874;2022-12-10T04:27:58;40.47;;;37.08;;
11531;SDS011;5822;51.000;5.874;2022-12-10T04:30:24;41.27;;;37.80;;
11531;SDS011;5822;51.000;5.874;2022-12-10T04:32:49;41.95;;;38.45;;
11531;SDS011;5822;51.000;5.874;2022-12-10T04:35:16;42.95;;;39.28;;
11531;SDS011;5822;51.000;5.874;2022-12-10T04:37:41;41.55;;;38.10;;
11531;SDS011;5822;51.000;5.874;2022-12-10T04:40:07;41.87;;;38.30;;
11531;SDS011;5822;51.000;5.874;2022-12-10T04:42:33;41.25;;;37.75;;
11531;SDS011;5822;51.000;5.874;2022-12-10T04:44:59;41.40;;;38.03;;
11531;SDS011;5822;51.000;5.874;2022-12-10T04:47:25;38.63;;;35.53;;
11531;SDS011;5822;51.000;5.874;2022-12-10T04:49:50;37.33;;;34.27;;
11531;SDS011;5822;51.000;5.874;2022-12-10T04:52:16;39.42;;;36.13;;
11531;SDS011;5822;51.000;5.874;2022-12-10T04:54:42;39.85;;;36.55;;
11531;SDS011;5822;51.000;5.874;2022-12-10T04:57:08;39.53;;;36.25;;
11531;SDS011;5822;51.000;5.874;2022-12-10T04:59:36;39.95;;;36.55;;
11531;SDS011;5822;51.000;5.874;2022-12-10T05:02:02;40.00;;;36.70;;
11531;SDS011;5822;51.000;5.874;2022-12-10T05:04:28;40.72;;;37.33;;
11531;SDS011;5822;51.000;5.874;2022-12-10T05:06:54;41.07;;;37.67;;
11531;SDS011;5822;51.000;5.874;2022-12-10T05:09:19;44.30;;;40.50;;
11531;SDS011;5822;51.000;5.874;2022-12-10T05:11:45;43.58;;;39.83;;
11531;SDS011;5822;51.000;5.874;2022-12-10T05:14:11;44.97;;;41.07;;
11531;SDS011;5822;51.000;5.874;2022-12-10T05:16:38;45.40;;;41.40;;
11531;SDS011;5822;51.000;5.874;2022-12-10T05:19:04;41.60;;;38.13;;
11531;SDS011;5822;51.000;5.874;2022-12-10T05:21:30;40.93;;;37.43;;
11531;SDS011;5822;51.000;5.874;2022-12-10T05:24:14;44.40;;;40.50;;
11531;SDS011;5822;51.000;5.874;2022-12-10T05:26:41;47.42;;;43.08;;
11531;SDS011;5822;51.000;5.874;2022-12-10T05:29:07;42.63;;;38.92;;
11531;SDS011;5822;51.000;5.874;2022-12-10T05:31:33;43.72;;;39.92;;
11531;SDS011;5822;51.000;5.874;2022-12-10T05:33:59;45.67;;;41.58;;
11531;SDS011;5822;51.000;5.874;2022-12-10T05:36:29;48.45;;;43.97;;
11531;SDS011;5822;51.000;5.874;2022-12-10T05:38:56;47.35;;;43.05;;
11531;SDS011;5822;51.000;5.874;2022-12-10T05:41:26;44.83;;;40.63;;
11531;SDS011;5822;51.000;5.874;2022-12-10T05:43:54;43.67;;;39.70;;
11531;SDS011;5822;51.000;5.874;2022-12-10T05:46:22;44.17;;;40.20;;
11531;SDS011;5822;51.000;5.874;2022-12-10T05:48:49;43.22;;;39.42;;
11531;SDS011;5822;51.000;5.874;2022-12-10T05:51:17;43.70;;;39.80;;
11531;SDS011;5822;51.000;5.874;2022-12-10T05:53:44;45.33;;;41.25;;
11531;SDS011;5822;51.000;5.874;2022-12-10T05:56:14;42.97;;;39.28;;
11531;SDS011;5822;51.000;5.874;2022-12-10T05:58:42;41.05;;;37.50;;
11531;SDS011;5822;51.000;5.874;2022-12-10T06:01:10;43.50;;;39.60;;
11531;SDS011;5822;51.000;5.874;2022-12-10T06:03:38;40.65;;;37.05;;
11531;SDS011;5822;51.000;5.874;2022-12-10T06:06:03;42.90;;;39.13;;
11531;SDS011;5822;51.000;5.874;2022-12-10T06:08:30;38.67;;;35.30;;
11531;SDS011;5822;51.000;5.874;2022-12-10T06:11:00;41.43;;;37.83;;
11531;SDS011;5822;51.000;5.874;2022-12-10T06:13:30;39.38;;;35.88;;
11531;SDS011;5822;51.000;5.874;2022-12-10T06:15:55;36.90;;;33.80;;
11531;SDS011;5822;51.000;5.874;2022-12-10T06:18:21;37.07;;;33.87;;
11531;SDS011;5822;51.000;5.874;2022-12-10T06:20:47;39.67;;;36.27;;
11531;SDS011;5822;51.000;5.874;2022-12-10T06:23:12;44.38;;;40.28;;
11531;SDS011;5822;51.000;5.874;2022-12-10T06:25:38;43.67;;;39.78;;
11531;SDS011;5822;51.000;5.874;2022-12-10T06:28:05;39.80;;;36.30;;
11531;SDS011;5822;51.000;5.874;2022-12-10T06:30:30;39.90;;;36.30;;
11531;SDS011;5822;51.000;5.874;2022-12-10T06:32:56;39.50;;;36.00;;
11531;SDS011;5822;51.000;5.874;2022-12-10T06:35:22;40.80;;;37.10;;
11531;SDS011;5822;51.000;5.874;2022-12-10T06:37:48;42.92;;;39.13;;
11531;SDS011;5822;51.000;5.874;2022-12-10T06:40:14;43.50;;;39.42;;
11531;SDS011;5822;51.000;5.874;2022-12-10T06:42:40;45.73;;;41.43;;
11531;SDS011;5822;51.000;5.874;2022-12-10T06:45:06;46.53;;;42.13;;
11531;SDS011;5822;51.000;5.874;2022-12-10T06:47:32;47.20;;;42.70;;
11531;SDS011;5822;51.000;5.874;2022-12-10T06:49:57;46.13;;;41.63;;
11531;SDS011;5822;51.000;5.874;2022-12-10T06:52:23;47.10;;;42.60;;
11531;SDS011;5822;51.000;5.874;2022-12-10T06:54:49;47.03;;;42.30;;
11531;SDS011;5822;51.000;5.874;2022-12-10T06:57:14;42.17;;;38.25;;
11531;SDS011;5822;51.000;5.874;2022-12-10T06:59:40;45.38;;;40.97;;
11531;SDS011;5822;51.000;5.874;2022-12-10T07:02:07;45.30;;;40.97;;
11531;SDS011;5822;51.000;5.874;2022-12-10T07:04:33;46.08;;;41.72;;
11531;SDS011;5822;51.000;5.874;2022-12-10T07:06:59;48.88;;;44.10;;
11531;SDS011;5822;51.000;5.874;2022-12-10T07:09:25;46.88;;;42.38;;
11531;SDS011;5822;51.000;5.874;2022-12-10T07:11:50;46.23;;;41.83;;
11531;SDS011;5822;51.000;5.874;2022-12-10T07:14:16;41.27;;;37.37;;
11531;SDS011;5822;51.000;5.874;2022-12-10T07:16:43;38.87;;;35.37;;
11531;SDS011;5822;51.000;5.874;2022-12-10T07:19:09;43.47;;;39.38;;
11531;SDS011;5822;51.000;5.874;2022-12-10T07:21:36;46.45;;;41.97;;
11531;SDS011;5822;51.000;5.874;2022-12-10T07:24:05;47.60;;;43.10;;
11531;SDS011;5822;51.000;5.874;2022-12-10T07:26:35;45.63;;;41.42;;
11531;SDS011;5822;51.000;5.874;2022-12-10T07:29:03;47.90;;;43.33;;
11531;SDS011;5822;51.000;5.874;2022-12-10T07:31:30;42.47;;;38.53;;
11531;SDS011;5822;51.000;5.874;2022-12-10T07:33:56;42.67;;;38.80;;
11531;SDS011;5822;51.000;5.874;2022-12-10T07:36:23;41.47;;;37.78;;
11531;SDS011;5822;51.000;5.874;2022-12-10T07:38:50;37.58;;;34.33;;
11531;SDS011;5822;51.000;5.874;2022-12-10T07:41:16;40.10;;;36.60;;
11531;SDS011;5822;51.000;5.874;2022-12-10T07:43:42;40.45;;;36.85;;
11531;SDS011;5822;51.000;5.874;2022-12-10T07:46:10;40.95;;;37.28;;
11531;SDS011;5822;51.000;5.874;2022-12-10T07:48:45;39.80;;;36.08;;
11531;SDS011;5822;51.000;5.874;2022-12-10T07:51:12;39.85;;;36.33;;
11531;SDS011;5822;51.000;5.874;2022-12-10T07:53:38;43.83;;;39.83;;
11531;SDS011;5822;51.000;5.874;2022-12-10T07:56:04;40.97;;;37.30;;
11531;SDS011;5822;51.000;5.874;2022-12-10T07:58:30;43.55;;;39.55;;
11531;SDS011;5822;51.000;5.874;2022-12-10T08:00:56;43.30;;;39.47;;
11531;SDS011;5822;51.000;5.874;2022-12-10T08:03:22;42.17;;;38.33;;
11531;SDS011;5822;51.000;5.874;2022-12-10T08:05:48;38.15;;;34.85;;
11531;SDS011;5822;51.000;5.874;2022-12-10T08:08:25;38.97;;;35.58;;
11531;SDS011;5822;51.000;5.874;2022-12-10T08:10:50;42.03;;;38.33;;
11531;SDS011;5822;51.000;5.874;2022-12-10T08:13:16;40.13;;;36.53;;
11531;SDS011;5822;51.000;5.874;2022-12-10T08:15:41;40.08;;;36.58;;
11531;SDS011;5822;51.000;5.874;2022-12-10T08:18:09;39.35;;;35.95;;
11531;SDS011;5822;51.000;5.874;2022-12-10T08:20:35;38.40;;;35.10;;
11531;SDS011;5822;51.000;5.874;2022-12-10T08:23:00;37.33;;;34.10;;
11531;SDS011;5822;51.000;5.874;2022-12-10T08:25:26;35.77;;;32.77;;
11531;SDS011;5822;51.000;5.874;2022-12-10T08:27:52;41.90;;;38.20;;
11531;SDS011;5822;51.000;5.874;2022-12-10T08:30:17;39.08;;;35.78;;
11531;SDS011;5822;51.000;5.874;2022-12-10T08:32:43;36.38;;;33.28;;
11531;SDS011;5822;51.000;5.874;2022-12-10T08:35:09;39.28;;;35.88;;
11531;SDS011;5822;51.000;5.874;2022-12-10T08:37:34;36.75;;;33.58;;
11531;SDS011;5822;51.000;5.874;2022-12-10T08:40:00;40.43;;;36.83;;
11531;SDS011;5822;51.000;5.874;2022-12-10T08:42:25;40.30;;;36.80;;
11531;SDS011;5822;51.000;5.874;2022-12-10T08:44:51;40.27;;;36.77;;
11531;SDS011;5822;51.000;5.874;2022-12-10T08:47:17;39.37;;;35.87;;
11531;SDS011;5822;51.000;5.874;2022-12-10T08:49:42;40.42;;;36.83;;
11531;SDS011;5822;51.000;5.874;2022-12-10T08:52:08;37.28;;;34.13;;
11531;SDS011;5822;51.000;5.874;2022-12-10T08:54:33;38.30;;;35.10;;
11531;SDS011;5822;51.000;5.874;2022-12-10T08:56:59;39.97;;;36.47;;
11531;SDS011;5822;51.000;5.874;2022-12-10T08:59:25;36.53;;;33.43;;
11531;SDS011;5822;51.000;5.874;2022-12-10T09:01:53;40.47;;;36.97;;
11531;SDS011;5822;51.000;5.874;2022-12-10T09:04:19;42.55;;;38.78;;
11531;SDS011;5822;51.000;5.874;2022-12-10T09:06:44;40.60;;;37.10;;
11531;SDS011;5822;51.000;5.874;2022-12-10T09:09:10;37.95;;;34.75;;
11531;SDS011;5822;51.000;5.874;2022-12-10T09:11:36;41.13;;;37.43;;
11531;SDS011;5822;51.000;5.874;2022-12-10T09:14:02;42.70;;;38.90;;
11531;SDS011;5822;51.000;5.874;2022-12-10T09:16:29;37.05;;;33.88;;
11531;SDS011;5822;51.000;5.874;2022-12-10T09:19:01;41.08;;;37.45;;
11531;SDS011;5822;51.000;5.874;2022-12-10T09:21:28;39.33;;;35.88;;
11531;SDS011;5822;51.000;5.874;2022-12-10T09:23:55;41.53;;;37.92;;
11531;SDS011;5822;51.000;5.874;2022-12-10T09:26:21;42.53;;;38.80;;
11531;SDS011;5822;51.000;5.874;2022-12-10T09:28:47;42.17;;;38.50;;
11531;SDS011;5822;51.000;5.874;2022-12-10T09:31:14;37.05;;;33.95;;
11531;SDS011;5822;51.000;5.874;2022-12-10T09:33:41;36.95;;;33.85;;
11531;SDS011;5822;51.000;5.874;2022-12-10T09:36:07;40.10;;;36.60;;
11531;SDS011;5822;51.000;5.874;2022-12-10T09:38:35;34.72;;;31.95;;
11531;SDS011;5822;51.000;5.874;2022-12-10T09:41:14;38.90;;;35.70;;
11531;SDS011;5822;51.000;5.874;2022-12-10T09:46:52;35.95;;;33.05;;
11531;SDS011;5822;51.000;5.874;2022-12-10T09:49:26;36.20;;;33.20;;
11531;SDS011;5822;51.000;5.874;2022-12-10T09:52:10;39.17;;;35.88;;
11531;SDS011;5822;51.000;5.874;2022-12-10T09:54:55;36.85;;;33.88;;
11531;SDS011;5822;51.000;5.874;2022-12-10T09:59:55;33.10;;;30.50;;
11531;SDS011;5822;51.000;5.874;2022-12-10T10:02:25;34.20;;;31.50;;
11531;SDS011;5822;51.000;5.874;2022-12-10T10:08:31;34.72;;;32.03;;
11531;SDS011;5822;51.000;5.874;2022-12-10T10:11:00;33.75;;;31.08;;
11531;SDS011;5822;51.000;5.874;2022-12-10T10:26:36;34.45;;;31.75;;
11531;SDS011;5822;51.000;5.874;2022-12-10T10:38:47;32.03;;;29.63;;
11531;SDS011;5822;51.000;5.874;2022-12-10T10:41:52;34.15;;;31.50;;
11531;SDS011;5822;51.000;5.874;2022-12-10T10:44:20;33.33;;;30.73;;
11531;SDS011;5822;51.000;5.874;2022-12-10T10:46:49;31.02;;;28.67;;
11531;SDS011;5822;51.000;5.874;2022-12-10T10:49:29;32.28;;;29.77;;
11531;SDS011;5822;51.000;5.874;2022-12-10T10:52:15;32.58;;;30.08;;
11531;SDS011;5822;51.000;5.874;2022-12-10T10:54:45;32.60;;;30.10;;
11531;SDS011;5822;51.000;5.874;2022-12-10T10:59:52;33.67;;;31.08;;
11531;SDS011;5822;51.000;5.874;2022-12-10T11:04:54;32.25;;;29.75;;
11531;SDS011;5822;51.000;5.874;2022-12-10T11:10:23;32.05;;;29.65;;
11531;SDS011;5822;51.000;5.874;2022-12-10T11:17:47;31.67;;;29.27;;
11531;SDS011;5822;51.000;5.874;2022-12-10T11:20:19;32.58;;;30.08;;
11531;SDS011;5822;51.000;5.874;2022-12-10T11:25:15;35.22;;;32.42;;
11531;SDS011;5822;51.000;5.874;2022-12-10T11:30:28;33.25;;;30.65;;
11531;SDS011;5822;51.000;5.874;2022-12-10T11:35:41;33.05;;;30.40;;
11531;SDS011;5822;51.000;5.874;2022-12-10T11:46:20;38.30;;;35.13;;
11531;SDS011;5822;51.000;5.874;2022-12-10T12:00:24;40.00;;;36.50;;
11531;SDS011;5822;51.000;5.874;2022-12-10T12:02:55;37.78;;;34.58;;
11531;SDS011;5822;51.000;5.874;2022-12-10T12:17:03;39.37;;;35.90;;
11531;SDS011;5822;51.000;5.874;2022-12-10T12:19:51;40.85;;;37.25;;
11531;SDS011;5822;51.000;5.874;2022-12-10T12:22:24;37.30;;;34.10;;
11531;SDS011;5822;51.000;5.874;2022-12-10T12:24:52;37.38;;;34.17;;
11531;SDS011;5822;51.000;5.874;2022-12-10T12:27:33;38.58;;;35.25;;
11531;SDS011;5822;51.000;5.874;2022-12-10T12:33:00;39.28;;;35.88;;
11531;SDS011;5822;51.000;5.874;2022-12-10T12:35:44;41.75;;;37.95;;
11531;SDS011;5822;51.000;5.874;2022-12-10T12:41:04;42.63;;;38.83;;
11531;SDS011;5822;51.000;5.874;2022-12-10T12:46:18;41.83;;;37.92;;
11531;SDS011;5822;51.000;5.874;2022-12-10T12:48:53;38.92;;;35.42;;
11531;SDS011;5822;51.000;5.874;2022-12-10T12:51:29;42.80;;;38.75;;
11531;SDS011;5822;51.000;5.874;2022-12-10T12:54:01;40.03;;;36.42;;
11531;SDS011;5822;51.000;5.874;2022-12-10T12:59:19;38.60;;;35.20;;
11531;SDS011;5822;51.000;5.874;2022-12-10T13:04:59;40.08;;;36.38;;
11531;SDS011;5822;51.000;5.874;2022-12-10T13:07:27;41.05;;;37.25;;
11531;SDS011;5822;51.000;5.874;2022-12-10T13:12:31;38.88;;;35.47;;
11531;SDS011;5822;51.000;5.874;2022-12-10T13:18:06;39.75;;;36.15;;
11531;SDS011;5822;51.000;5.874;2022-12-10T13:23:51;39.75;;;36.15;;
11531;SDS011;5822;51.000;5.874;2022-12-10T13:26:40;41.40;;;37.60;;
11531;SDS011;5822;51.000;5.874;2022-12-10T13:29:26;41.60;;;37.80;;
11531;SDS011;5822;51.000;5.874;2022-12-10T13:32:02;40.10;;;36.40;;
11531;SDS011;5822;51.000;5.874;2022-12-10T13:34:33;38.70;;;35.20;;
11531;SDS011;5822;51.000;5.874;2022-12-10T13:47:47;35.75;;;32.65;;
11531;SDS011;5822;51.000;5.874;2022-12-10T13:50:19;37.22;;;33.83;;
11531;SDS011;5822;51.000;5.874;2022-12-10T13:58:38;43.13;;;39.25;;
11531;SDS011;5822;51.000;5.874;2022-12-10T14:04:04;40.08;;;36.47;;
11531;SDS011;5822;51.000;5.874;2022-12-10T14:06:46;38.90;;;35.47;;
11531;SDS011;5822;51.000;5.874;2022-12-10T14:09:24;37.47;;;34.10;;
11531;SDS011;5822;51.000;5.874;2022-12-10T14:14:29;35.45;;;32.35;;
11531;SDS011;5822;51.000;5.874;2022-12-10T14:16:59;38.58;;;35.17;;
11531;SDS011;5822;51.000;5.874;2022-12-10T14:19:29;35.83;;;32.72;;
11531;SDS011;5822;51.000;5.874;2022-12-10T14:21:55;35.88;;;32.67;;
11531;SDS011;5822;51.000;5.874;2022-12-10T14:24:26;36.05;;;32.85;;
11531;SDS011;5822;51.000;5.874;2022-12-10T14:27:14;34.95;;;31.80;;
11531;SDS011;5822;51.000;5.874;2022-12-10T14:29:49;34.22;;;31.23;;
11531;SDS011;5822;51.000;5.874;2022-12-10T14:32:17;33.08;;;30.17;;
11531;SDS011;5822;51.000;5.874;2022-12-10T14:34:54;35.47;;;32.35;;
11531;SDS011;5822;51.000;5.874;2022-12-10T14:37:42;34.35;;;31.45;;
11531;SDS011;5822;51.000;5.874;2022-12-10T14:40:29;34.80;;;31.80;;
11531;SDS011;5822;51.000;5.874;2022-12-10T14:43:05;35.00;;;31.88;;
11531;SDS011;5822;51.000;5.874;2022-12-10T14:48:21;35.47;;;32.27;;
11531;SDS011;5822;51.000;5.874;2022-12-10T14:50:47;39.08;;;35.47;;
11531;SDS011;5822;51.000;5.874;2022-12-10T14:53:17;33.15;;;30.35;;
11531;SDS011;5822;51.000;5.874;2022-12-10T14:55:45;34.55;;;31.50;;
11531;SDS011;5822;51.000;5.874;2022-12-10T15:01:01;34.78;;;31.67;;
11531;SDS011;5822;51.000;5.874;2022-12-10T15:03:29;32.60;;;29.75;;
11531;SDS011;5822;51.000;5.874;2022-12-10T15:05:58;34.58;;;31.45;;
11531;SDS011;5822;51.000;5.874;2022-12-10T15:08:26;35.77;;;32.57;;
11531;SDS011;5822;51.000;5.874;2022-12-10T15:10:57;32.80;;;29.90;;
11531;SDS011;5822;51.000;5.874;2022-12-10T15:13:33;31.30;;;28.65;;
11531;SDS011;5822;51.000;5.874;2022-12-10T15:16:04;31.70;;;28.80;;
11531;SDS011;5822;51.000;5.874;2022-12-10T15:18:36;32.38;;;29.48;;
11531;SDS011;5822;51.000;5.874;2022-12-10T15:21:04;31.73;;;28.92;;
11531;SDS011;5822;51.000;5.874;2022-12-10T15:23:41;31.17;;;28.38;;
11531;SDS011;5822;51.000;5.874;2022-12-10T15:28:52;33.35;;;30.45;;
11531;SDS011;5822;51.000;5.874;2022-12-10T15:31:38;33.22;;;30.33;;
11531;SDS011;5822;51.000;5.874;2022-12-10T15:34:09;32.28;;;29.48;;
11531;SDS011;5822;51.000;5.874;2022-12-10T15:36:42;34.42;;;31.38;;
11531;SDS011;5822;51.000;5.874;2022-12-10T15:41:48;36.38;;;33.08;;
11531;SDS011;5822;51.000;5.874;2022-12-10T15:44:26;34.50;;;31.42;;
11531;SDS011;5822;51.000;5.874;2022-12-10T15:47:02;32.97;;;30.08;;
11531;SDS011;5822;51.000;5.874;2022-12-10T15:49:38;32.25;;;29.35;;
11531;SDS011;5822;51.000;5.874;2022-12-10T15:52:03;32.28;;;29.48;;
11531;SDS011;5822;51.000;5.874;2022-12-10T15:54:34;36.92;;;33.55;;
11531;SDS011;5822;51.000;5.874;2022-12-10T15:57:12;34.97;;;31.67;;
11531;SDS011;5822;51.000;5.874;2022-12-10T15:59:42;33.97;;;30.98;;
11531;SDS011;5822;51.000;5.874;2022-12-10T16:05:00;36.35;;;33.05;;
11531;SDS011;5822;51.000;5.874;2022-12-10T16:07:26;34.40;;;31.30;;
11531;SDS011;5822;51.000;5.874;2022-12-10T16:09:52;34.83;;;31.63;;
11531;SDS011;5822;51.000;5.874;2022-12-10T16:12:17;33.27;;;30.37;;
11531;SDS011;5822;51.000;5.874;2022-12-10T16:14:48;33.83;;;30.92;;
11531;SDS011;5822;51.000;5.874;2022-12-10T16:17:17;32.00;;;29.20;;
11531;SDS011;5822;51.000;5.874;2022-12-10T16:19:43;31.25;;;28.55;;
11531;SDS011;5822;51.000;5.874;2022-12-10T16:22:09;31.60;;;28.92;;
11531;SDS011;5822;51.000;5.874;2022-12-10T16:24:35;32.57;;;29.67;;
11531;SDS011;5822;51.000;5.874;2022-12-10T16:27:01;32.75;;;29.85;;
11531;SDS011;5822;51.000;5.874;2022-12-10T16:29:30;32.70;;;29.90;;
11531;SDS011;5822;51.000;5.874;2022-12-10T16:31:55;33.55;;;30.65;;
11531;SDS011;5822;51.000;5.874;2022-12-10T16:34:21;33.80;;;30.80;;
11531;SDS011;5822;51.000;5.874;2022-12-10T16:36:46;31.47;;;28.87;;
11531;SDS011;5822;51.000;5.874;2022-12-10T16:39:12;31.50;;;28.80;;
11531;SDS011;5822;51.000;5.874;2022-12-10T16:41:39;31.63;;;28.83;;
11531;SDS011;5822;51.000;5.874;2022-12-10T16:44:04;31.58;;;28.83;;
11531;SDS011;5822;51.000;5.874;2022-12-10T16:46:30;32.42;;;29.55;;
11531;SDS011;5822;51.000;5.874;2022-12-10T16:48:55;31.65;;;28.85;;
11531;SDS011;5822;51.000;5.874;2022-12-10T16:51:22;32.60;;;29.70;;
11531;SDS011;5822;51.000;5.874;2022-12-10T16:53:51;31.85;;;29.05;;
11531;SDS011;5822;51.000;5.874;2022-12-10T16:56:16;32.63;;;29.73;;
11531;SDS011;5822;51.000;5.874;2022-12-10T16:58:43;39.03;;;35.22;;
11531;SDS011;5822;51.000;5.874;2022-12-10T17:01:14;37.58;;;34.08;;
11531;SDS011;5822;51.000;5.874;2022-12-10T17:03:45;35.75;;;32.45;;
11531;SDS011;5822;51.000;5.874;2022-12-10T17:06:11;32.38;;;29.48;;
11531;SDS011;5822;51.000;5.874;2022-12-10T17:08:38;34.45;;;31.35;;
11531;SDS011;5822;51.000;5.874;2022-12-10T17:14:05;32.67;;;29.77;;
11531;SDS011;5822;51.000;5.874;2022-12-10T17:16:34;32.58;;;29.77;;
11531;SDS011;5822;51.000;5.874;2022-12-10T17:19:00;33.60;;;30.60;;
11531;SDS011;5822;51.000;5.874;2022-12-10T17:21:25;34.10;;;30.97;;
11531;SDS011;5822;51.000;5.874;2022-12-10T17:23:51;32.40;;;29.58;;